Time;durP1;ratioP1;P1;durP2;ratioP2;P2;SDS_P1;SDS_P2;PMS_P1;PMS_P2;Temp;Humidity;BMP_temperature;BMP_pressure;BME280_temperature;BME280_humidity;BME280_pressure;Samples;Min_cycle;Max_cycle;Signal;HPM_P1;HPM_P2
2023/11/13 05:06:20;;;;;;;;;28.00;26.00;;;;;;;;6023998;46;9999987;-65
2023/11/13 12:33:09;;;;;;;;;12.33;11.33;;;;;;;;6492230;39;9053;-63
2023/11/13 12:39:22;;;;;;;;;12.00;11.00;;;;;;;;6490827;39;9308;-64
2023/11/13 12:45:28;;;;;;;;;41.00;33.75;;;;;;;;6490586;46;8925;-65
2023/11/13 12:51:35;;;;;;;;;11.00;11.00;;;;;;;;6489762;39;8961;-66
2023/11/13 12:57:46;;;;;;;;;7.33;7.33;;;;;;;;6490667;39;8929;-65
2023/11/13 13:03:56;;;;;;;;;8.00;8.00;;;;;;;;6489160;39;9009;-67
2023/11/13 13:10:02;;;;;;;;;14.33;14.33;;;;;;;;6487626;39;8928;-63
2023/11/13 13:16:13;;;;;;;;;11.67;10.33;;;;;;;;6490431;46;8895;-63
2023/11/13 13:22:18;;;;;;;;;10.33;10.00;;;;;;;;6489118;31;8928;-66
2023/11/13 13:28:22;;;;;;;;;13.00;12.00;;;;;;;;6489661;39;8923;-64
2023/11/13 13:34:31;;;;;;;;;12.33;11.00;;;;;;;;6489534;46;9000;-64
2023/11/13 13:40:41;;;;;;;;;14.00;13.00;;;;;;;;6489597;39;8932;-65
2023/11/13 13:46:47;;;;;;;;;20.00;15.67;;;;;;;;6489090;46;9058;-64
2023/11/13 13:52:56;;;;;;;;;13.00;13.00;;;;;;;;6487484;46;8940;-65
2023/11/13 13:59:02;;;;;;;;;14.00;11.00;;;;;;;;6488095;39;8922;-63
2023/11/13 14:05:06;;;;;;;;;8.67;8.67;;;;;;;;6488729;31;8946;-64
2023/11/13 14:11:13;;;;;;;;;15.00;11.00;;;;;;;;6489693;39;8968;-64
2023/11/13 14:17:20;;;;;;;;;10.25;10.25;;;;;;;;6491351;31;9557;-65
2023/11/13 14:23:25;;;;;;;;;11.25;8.75;;;;;;;;6490078;46;8969;-64
2023/11/13 14:29:29;;;;;;;;;13.50;13.50;;;;;;;;6490551;39;9031;-66
2023/11/13 14:35:33;;;;;;;;;16.50;16.00;;;;;;;;6490317;46;8952;-66
2023/11/13 14:41:36;;;;;;;;;43.75;37.25;;;;;;;;6490322;39;8918;-66
2023/11/13 14:47:40;;;;;;;;;22.00;19.75;;;;;;;;6489105;46;8916;-66
2023/11/13 14:53:44;;;;;;;;;11.75;9.50;;;;;;;;6490138;46;8967;-64
2023/11/13 14:59:50;;;;;;;;;15.50;15.00;;;;;;;;6491754;31;8992;-66
2023/11/13 15:05:56;;;;;;;;;22.50;18.25;;;;;;;;6490433;31;9059;-65
2023/11/13 15:12:11;;;;;;;;;12.75;11.50;;;;;;;;6489936;39;8932;-65
2023/11/13 15:18:14;;;;;;;;;14.75;14.75;;;;;;;;6491410;39;8977;-66
2023/11/13 15:24:17;;;;;;;;;19.50;19.50;;;;;;;;6489370;39;8963;-65
2023/11/13 15:30:21;;;;;;;;;20.75;20.25;;;;;;;;6489752;47;8924;-64
2023/11/13 15:36:28;;;;;;;;;22.50;20.50;;;;;;;;6490094;39;8930;-63
2023/11/13 15:42:32;;;;;;;;;21.00;19.25;;;;;;;;6488980;47;9022;-63
2023/11/13 15:48:38;;;;;;;;;21.50;20.50;;;;;;;;6491045;39;9068;-63
2023/11/13 15:54:43;;;;;;;;;19.25;16.50;;;;;;;;6489830;47;8989;-64
2023/11/13 16:00:51;;;;;;;;;17.00;17.00;;;;;;;;6490925;39;8916;-63
2023/11/13 16:06:54;;;;;;;;;16.75;15.25;;;;;;;;6489473;46;9054;-64
2023/11/13 16:12:57;;;;;;;;;21.75;19.25;;;;;;;;6491854;39;8943;-62
2023/11/13 16:19:02;;;;;;;;;19.25;17.25;;;;;;;;6491255;39;9677;-65
2023/11/13 16:25:05;;;;;;;;;17.00;14.50;;;;;;;;6491608;39;9039;-63
2023/11/13 16:31:11;;;;;;;;;15.00;14.00;;;;;;;;6492846;39;9019;-62
2023/11/13 16:37:23;;;;;;;;;20.00;17.50;;;;;;;;6491895;39;8876;-64
2023/11/13 16:43:31;;;;;;;;;27.25;24.25;;;;;;;;6491525;46;8864;-63
2023/11/13 16:49:42;;;;;;;;;25.25;24.25;;;;;;;;6490841;31;8926;-61
2023/11/13 16:55:47;;;;;;;;;23.75;22.25;;;;;;;;6491530;39;8939;-63
2023/11/13 17:01:53;;;;;;;;;27.00;25.00;;;;;;;;6493241;31;8955;-63
2023/11/13 17:07:59;;;;;;;;;21.00;21.00;;;;;;;;6491205;39;8855;-63
2023/11/13 17:14:04;;;;;;;;;26.25;24.75;;;;;;;;6493356;39;8910;-64
2023/11/13 17:20:12;;;;;;;;;24.25;24.00;;;;;;;;6490766;39;8848;-62
2023/11/13 17:26:15;;;;;;;;;23.25;23.25;;;;;;;;6492261;39;8887;-62
2023/11/13 17:32:19;;;;;;;;;23.25;21.25;;;;;;;;6491335;43;9062;-63
2023/11/13 17:38:23;;;;;;;;;22.50;20.50;;;;;;;;6491556;39;8839;-63
2023/11/13 17:44:28;;;;;;;;;31.25;26.25;;;;;;;;6492464;39;8874;-64
2023/11/13 17:50:31;;;;;;;;;32.25;28.00;;;;;;;;6490857;46;8902;-64
2023/11/13 17:56:34;;;;;;;;;28.00;26.25;;;;;;;;6491451;46;8911;-64
2023/11/13 18:02:44;;;;;;;;;30.50;25.25;;;;;;;;6491170;39;9033;-63
2023/11/13 18:08:50;;;;;;;;;25.75;22.00;;;;;;;;6491022;39;8863;-64
2023/11/13 18:14:54;;;;;;;;;35.75;34.75;;;;;;;;6492553;39;9010;-64
2023/11/13 18:20:59;;;;;;;;;34.00;31.00;;;;;;;;6491372;39;8991;-61
2023/11/13 18:27:05;;;;;;;;;41.50;39.50;;;;;;;;6490947;46;8804;-63
2023/11/13 18:33:20;;;;;;;;;38.25;35.00;;;;;;;;6491564;39;8943;-63
2023/11/13 18:39:28;;;;;;;;;35.75;34.50;;;;;;;;6490525;46;8875;-63
2023/11/13 18:45:34;;;;;;;;;39.25;34.00;;;;;;;;6491913;39;8883;-62
2023/11/13 18:51:37;;;;;;;;;26.25;25.75;;;;;;;;6491521;39;8933;-63
2023/11/13 18:57:41;;;;;;;;;31.25;27.00;;;;;;;;6491715;39;8989;-62
2023/11/13 19:03:48;;;;;;;;;25.00;25.00;;;;;;;;6491314;31;8903;-61
2023/11/13 19:09:55;;;;;;;;;25.25;25.25;;;;;;;;6491596;39;8886;-62
2023/11/13 19:15:59;;;;;;;;;16.50;15.75;;;;;;;;6491991;31;8917;-64
2023/11/13 19:22:15;;;;;;;;;24.50;24.25;;;;;;;;6489849;39;8915;-63
2023/11/13 19:28:23;;;;;;;;;27.00;22.00;;;;;;;;6491465;39;8911;-65
2023/11/13 19:34:27;;;;;;;;;26.50;23.50;;;;;;;;6490144;47;8875;-62
2023/11/13 19:40:37;;;;;;;;;33.75;30.75;;;;;;;;6491575;39;8831;-64
2023/11/13 19:46:43;;;;;;;;;27.25;27.25;;;;;;;;6492827;39;8883;-65
2023/11/13 19:52:49;;;;;;;;;25.00;25.00;;;;;;;;6492649;46;9108;-63
2023/11/13 19:58:53;;;;;;;;;30.25;27.75;;;;;;;;6493236;39;8863;-65
2023/11/13 20:04:59;;;;;;;;;29.50;28.25;;;;;;;;6492514;46;8899;-64
2023/11/13 20:11:20;;;;;;;;;26.75;25.00;;;;;;;;6492933;46;8866;-62
2023/11/13 20:17:25;;;;;;;;;26.00;22.75;;;;;;;;6490395;39;9132;-62
2023/11/13 20:23:29;;;;;;;;;22.75;20.50;;;;;;;;6493186;39;8886;-63
2023/11/13 20:29:34;;;;;;;;;22.25;20.50;;;;;;;;6491782;46;8907;-64
2023/11/13 20:35:41;;;;;;;;;25.75;22.75;;;;;;;;6492096;46;9011;-62
2023/11/13 20:41:44;;;;;;;;;24.50;21.75;;;;;;;;6493333;39;8995;-64
2023/11/13 20:47:52;;;;;;;;;26.50;22.50;;;;;;;;6492455;31;8977;-62
2023/11/13 20:53:56;;;;;;;;;26.25;25.25;;;;;;;;6492633;39;9061;-63
2023/11/13 21:00:00;;;;;;;;;27.00;25.00;;;;;;;;6492136;39;8891;-63
2023/11/13 21:06:07;;;;;;;;;25.50;23.75;;;;;;;;6491353;31;9021;-62
2023/11/13 21:12:12;;;;;;;;;24.50;22.75;;;;;;;;6492190;39;8887;-64
2023/11/13 21:18:14;;;;;;;;;29.25;23.25;;;;;;;;6491106;31;8929;-63
2023/11/13 21:24:17;;;;;;;;;26.00;25.75;;;;;;;;6492731;31;8832;-62
2023/11/13 21:30:19;;;;;;;;;27.75;26.25;;;;;;;;6491969;39;8950;-62
2023/11/13 21:36:26;;;;;;;;;28.00;24.75;;;;;;;;6491104;39;8907;-61
2023/11/13 21:42:32;;;;;;;;;32.00;29.00;;;;;;;;6490582;39;9130;-62
2023/11/13 21:48:36;;;;;;;;;28.00;27.25;;;;;;;;6490256;39;8887;-61
2023/11/13 21:54:38;;;;;;;;;33.50;30.25;;;;;;;;6491347;46;8926;-61
2023/11/13 22:00:44;;;;;;;;;30.25;25.50;;;;;;;;6490096;39;9538;-62
2023/11/13 22:06:49;;;;;;;;;32.25;30.75;;;;;;;;6490113;39;8899;-62
2023/11/13 22:12:54;;;;;;;;;23.50;23.50;;;;;;;;6489468;46;8923;-62
2023/11/13 22:18:57;;;;;;;;;34.50;32.50;;;;;;;;6490307;39;8925;-62
2023/11/13 22:25:01;;;;;;;;;34.75;33.25;;;;;;;;6490069;39;8984;-62
2023/11/13 22:31:06;;;;;;;;;40.75;39.50;;;;;;;;6490400;39;8961;-64
2023/11/13 22:37:09;;;;;;;;;41.00;37.25;;;;;;;;6489796;39;8930;-63
2023/11/13 22:43:14;;;;;;;;;39.00;37.50;;;;;;;;6490141;46;8859;-62
2023/11/13 22:49:20;;;;;;;;;44.00;38.50;;;;;;;;6490037;31;8979;-61
2023/11/13 22:55:22;;;;;;;;;46.50;40.25;;;;;;;;6490247;39;8911;-62
2023/11/13 23:01:25;;;;;;;;;38.75;37.50;;;;;;;;6489765;39;8911;-61
2023/11/13 23:07:44;;;;;;;;;41.50;37.50;;;;;;;;6490769;39;8943;-63
2023/11/13 23:13:48;;;;;;;;;34.25;27.50;;;;;;;;6489620;39;8958;-61
2023/11/13 23:19:57;;;;;;;;;32.75;29.50;;;;;;;;6490652;39;8867;-62
2023/11/13 23:26:00;;;;;;;;;37.75;36.50;;;;;;;;6492273;46;8882;-61
2023/11/13 23:32:10;;;;;;;;;44.25;39.00;;;;;;;;6491769;46;8911;-62
2023/11/13 23:38:17;;;;;;;;;46.25;37.50;;;;;;;;6492179;46;8975;-64
2023/11/13 23:44:22;;;;;;;;;40.00;35.25;;;;;;;;6491054;46;8899;-61
2023/11/13 23:50:27;;;;;;;;;32.25;27.75;;;;;;;;6491428;46;8871;-62
2023/11/13 23:56:32;;;;;;;;;33.00;32.00;;;;;;;;6491119;39;8919;-63
